Time;durP1;ratioP1;P1;durP2;ratioP2;P2;SDS_P1;SDS_P2;PMS_P1;PMS_P2;Temp;Humidity;BMP_temperature;BMP_pressure;BME280_temperature;BME280_humidity;BME280_pressure;Samples;Min_cycle;Max_cycle;Signal;HPM_P1;HPM_P2
2022/08/13 00:02:02;;;;;;;3.17;1.30;;;;;;;24.38;33.94;100524.00;4133488;28;21510;-68
2022/08/13 00:04:06;;;;;;;1.52;1.17;;;;;;;24.28;34.17;100521.81;4135967;28;20058;-68
2022/08/13 00:06:11;;;;;;;4.60;1.30;;;;;;;24.22;34.51;100517.63;4146102;28;20069;-68
2022/08/13 00:08:30;;;;;;;4.05;1.35;;;;;;;24.15;34.67;100513.47;4141881;28;20601;-69
2022/08/13 00:10:33;;;;;;;2.35;1.30;;;;;;;24.14;34.88;100514.44;4146501;28;20046;-68
2022/08/13 00:12:56;;;;;;;1.40;1.13;;;;;;;24.10;34.85;100515.47;4146513;28;20488;-68
2022/08/13 00:15:02;;;;;;;3.10;1.05;;;;;;;23.99;34.90;100516.78;4147275;28;20095;-68
2022/08/13 00:17:17;;;;;;;1.88;1.08;;;;;;;23.94;35.00;100518.75;4146738;28;20065;-68
2022/08/13 00:19:26;;;;;;;4.85;1.30;;;;;;;23.93;35.39;100524.13;4138974;28;20046;-68
2022/08/13 00:21:32;;;;;;;3.22;1.40;;;;;;;23.94;35.39;100524.06;4136290;28;20038;-68
2022/08/13 00:23:57;;;;;;;3.40;1.35;;;;;;;23.96;35.42;100518.69;4144149;28;20121;-68
2022/08/13 00:26:03;;;;;;;4.70;1.13;;;;;;;23.96;35.30;100511.59;4147272;28;20041;-68
2022/08/13 00:28:06;;;;;;;1.42;1.02;;;;;;;23.92;35.44;100509.09;4146883;28;20125;-68
2022/08/13 00:30:11;;;;;;;2.50;1.00;;;;;;;23.88;35.77;100508.38;4147654;28;20041;-67
2022/08/13 00:32:21;;;;;;;2.65;1.38;;;;;;;23.88;35.90;100505.72;4146140;28;20129;-68
2022/08/13 00:34:27;;;;;;;1.63;1.00;;;;;;;23.92;35.65;100507.34;4147031;28;20042;-68
2022/08/13 00:36:34;;;;;;;2.75;1.45;;;;;;;23.87;35.78;100515.50;4147158;28;20034;-68
2022/08/13 00:38:46;;;;;;;1.55;1.20;;;;;;;23.86;35.81;100521.72;4146645;28;20059;-68
2022/08/13 00:40:58;;;;;;;4.25;1.20;;;;;;;23.84;35.72;100509.41;4147421;28;20042;-68
2022/08/13 00:43:04;;;;;;;3.28;1.10;;;;;;;23.83;35.82;100505.88;4146416;28;20045;-68
2022/08/13 00:45:09;;;;;;;2.70;1.27;;;;;;;23.76;35.67;100508.81;4145503;28;20045;-68
2022/08/13 00:49:53;;;;;;;2.83;0.98;;;;;;;23.66;35.82;100501.25;4097048;29;20478;-69
2022/08/13 00:52:04;;;;;;;3.88;1.15;;;;;;;23.62;36.26;100502.28;4138428;28;20125;-69
2022/08/13 00:54:09;;;;;;;1.73;1.10;;;;;;;23.58;36.09;100503.31;4146121;28;20118;-68
2022/08/13 00:56:14;;;;;;;2.45;1.10;;;;;;;23.51;36.44;100517.78;4155460;28;20034;-69
2022/08/13 00:58:17;;;;;;;5.13;1.35;;;;;;;23.55;36.23;100510.56;4137940;28;20038;-69
2022/08/13 01:00:24;;;;;;;2.58;1.25;;;;;;;23.64;36.21;100510.19;4146912;28;20046;-69
2022/08/13 01:02:31;;;;;;;1.90;1.20;;;;;;;23.58;36.47;100511.28;4149479;28;20104;-69
2022/08/13 01:04:34;;;;;;;1.30;1.05;;;;;;;23.57;36.48;100520.19;4150265;28;20034;-68
2022/08/13 01:06:38;;;;;;;5.32;1.92;;;;;;;23.61;35.60;100516.50;4149603;28;20049;-69
2022/08/13 01:08:42;;;;;;;;;;;;;;;23.41;36.12;100513.72;4150343;28;20049;-68
2022/08/13 01:11:00;;;;;;;1.95;1.20;;;;;;;23.44;36.66;100513.63;4149950;28;19968;-68
2022/08/13 01:13:11;;;;;;;3.22;1.80;;;;;;;23.49;36.27;100511.66;4144387;28;20534;-68
2022/08/13 01:15:14;;;;;;;2.75;1.60;;;;;;;23.50;36.17;100513.41;4147554;28;20411;-69
2022/08/13 01:17:22;;;;;;;3.40;1.50;;;;;;;23.44;36.58;100517.16;4142998;28;20046;-68
2022/08/13 01:19:35;;;;;;;2.45;1.50;;;;;;;23.41;36.61;100511.06;4139390;28;20057;-68
2022/08/13 01:21:59;;;;;;;2.88;1.35;;;;;;;23.41;36.39;100521.69;4146973;28;20718;-68
2022/08/13 01:24:04;;;;;;;1.90;1.08;;;;;;;23.44;36.32;100518.94;4149866;28;20088;-68
2022/08/13 01:26:07;;;;;;;4.63;1.27;;;;;;;23.51;36.31;100512.47;4149531;28;20099;-68
2022/08/13 01:28:12;;;;;;;4.25;1.50;;;;;;;23.52;35.70;100512.41;4149071;28;20508;-68
2022/08/13 01:30:19;;;;;;;4.43;1.30;;;;;;;23.46;36.17;100507.31;4147843;28;20046;-68
2022/08/13 01:32:23;;;;;;;2.00;1.30;;;;;;;23.42;36.75;100508.41;4147904;28;20046;-68
2022/08/13 01:34:50;;;;;;;1.63;1.38;;;;;;;23.45;37.10;100510.03;4149338;28;20049;-68
2022/08/13 01:36:54;;;;;;;2.42;1.60;;;;;;;23.43;37.19;100501.28;4149624;28;20432;-68
2022/08/13 01:39:04;;;;;;;2.05;1.50;;;;;;;23.34;37.17;100506.00;4149216;28;20053;-68
2022/08/13 01:41:08;;;;;;;3.50;1.27;;;;;;;23.30;37.11;100507.03;4149470;28;20603;-68
2022/08/13 01:43:19;;;;;;;3.15;1.58;;;;;;;23.29;37.17;100508.00;4148961;28;20046;-68
2022/08/13 01:45:28;;;;;;;1.23;1.00;;;;;;;23.26;37.25;100509.88;4149152;28;20042;-68
2022/08/13 01:52:20;;;;;;;2.22;1.30;;;;;;;23.12;37.55;100511.28;4148970;28;20415;-67
2022/08/13 01:54:25;;;;;;;4.82;1.60;;;;;;;23.06;37.75;100515.91;4147628;28;20566;-67
2022/08/13 01:56:41;;;;;;;2.78;1.52;;;;;;;23.01;37.58;100516.06;4149024;28;20108;-67
2022/08/13 01:58:47;;;;;;;1.83;1.20;;;;;;;23.00;37.71;100514.34;4148730;28;20077;-67
2022/08/13 02:01:10;;;;;;;2.67;1.30;;;;;;;22.93;37.88;100519.00;4147374;28;20056;-67
2022/08/13 02:03:14;;;;;;;5.55;1.45;;;;;;;22.93;38.05;100516.34;4148829;28;20085;-67
2022/08/13 02:05:18;;;;;;;2.80;1.45;;;;;;;23.04;37.67;100526.56;4148604;28;20034;-67
2022/08/13 02:07:43;;;;;;;2.28;1.17;;;;;;;22.99;37.78;100523.22;4148031;28;20041;-67
2022/08/13 02:10:08;;;;;;;1.53;1.37;;;;;;;22.91;37.29;100518.22;4145148;28;20403;-68
2022/08/13 02:12:13;;;;;;;1.67;1.13;;;;;;;22.83;38.07;100521.09;4146362;28;20499;-68
2022/08/13 02:14:36;;;;;;;;;;;;;;;22.74;38.44;100517.94;4131584;28;20054;-68
2022/08/13 02:16:41;;;;;;;1.92;1.25;;;;;;;22.83;38.03;100518.47;4148511;28;19928;-68
2022/08/13 02:18:44;;;;;;;1.88;1.25;;;;;;;22.87;37.93;100508.63;4148147;28;20046;-68
2022/08/13 02:20:49;;;;;;;4.38;1.40;;;;;;;22.83;38.01;100510.50;4135941;28;20112;-67
2022/08/13 02:22:52;;;;;;;1.95;1.30;;;;;;;22.79;37.89;100516.88;4145865;28;20033;-67
2022/08/13 02:24:59;;;;;;;4.32;1.38;;;;;;;22.73;38.44;100513.56;4148533;28;20041;-67
2022/08/13 02:27:04;;;;;;;3.10;1.30;;;;;;;22.71;37.90;100510.97;4131027;28;20053;-67
2022/08/13 02:29:09;;;;;;;3.65;1.20;;;;;;;22.67;38.06;100511.97;4144338;28;20424;-68
2022/08/13 02:31:13;;;;;;;2.08;1.00;;;;;;;22.55;38.55;100521.22;4150312;28;20042;-68
2022/08/13 02:33:37;;;;;;;2.15;1.48;;;;;;;22.55;38.92;100515.06;4162339;28;20053;-68
2022/08/13 02:35:46;;;;;;;1.63;1.10;;;;;;;22.54;38.49;100518.63;4144014;28;20041;-68
2022/08/13 02:37:50;;;;;;;2.65;1.45;;;;;;;22.38;38.96;100521.78;4148018;28;20467;-68
2022/08/13 02:40:00;;;;;;;2.28;1.30;;;;;;;22.43;39.24;100524.31;4147036;28;20547;-68
2022/08/13 02:42:08;;;;;;;4.47;1.38;;;;;;;22.51;39.33;100524.91;4148226;28;20053;-68
2022/08/13 02:44:18;;;;;;;1.58;1.00;;;;;;;22.54;39.60;100538.03;4148526;28;20488;-67
2022/08/13 02:46:35;;;;;;;4.95;1.20;;;;;;;22.64;39.06;100523.53;4148281;28;20076;-67
2022/08/13 02:48:40;;;;;;;;;;;;;;;22.38;39.48;100526.25;4148398;28;20030;-68
2022/08/13 02:50:45;;;;;;;5.70;1.58;;;;;;;22.29;39.75;100527.38;4148137;28;19921;-68
2022/08/13 02:52:54;;;;;;;1.80;1.50;;;;;;;22.40;39.25;100527.03;4147982;28;20077;-67
2022/08/13 02:55:00;;;;;;;1.92;1.33;;;;;;;22.22;39.77;100516.13;4147485;28;20045;-67
2022/08/13 02:57:04;;;;;;;5.28;1.42;;;;;;;22.18;39.74;100524.22;4130813;28;20575;-67
2022/08/13 02:59:10;;;;;;;2.10;1.38;;;;;;;22.09;39.86;100531.56;4146581;28;20463;-68
2022/08/13 03:01:34;;;;;;;1.90;1.30;;;;;;;21.96;40.51;100533.72;4147696;28;20092;-67
2022/08/13 03:03:56;;;;;;;2.08;1.38;;;;;;;22.16;40.66;100528.72;4148351;28;20484;-68
2022/08/13 03:06:00;;;;;;;2.53;1.55;;;;;;;22.31;39.97;100521.13;4148132;28;20049;-68
2022/08/13 03:08:04;;;;;;;2.13;1.23;;;;;;;22.37;40.17;100525.38;4146583;28;20121;-68
2022/08/13 03:10:15;;;;;;;2.58;1.42;;;;;;;22.51;40.10;100522.25;4147422;28;20411;-67
2022/08/13 03:12:22;;;;;;;7.25;1.70;;;;;;;22.51;39.85;100529.34;4146880;28;20038;-68
2022/08/13 03:14:36;;;;;;;3.50;1.70;;;;;;;22.34;40.33;100527.25;4147906;28;20069;-68
2022/08/13 03:16:41;;;;;;;1.30;1.20;;;;;;;22.34;40.42;100529.91;4148113;28;20125;-68
2022/08/13 03:18:48;;;;;;;2.47;1.40;;;;;;;22.35;40.56;100521.03;4146093;28;20046;-67
2022/08/13 03:20:56;;;;;;;2.10;1.40;;;;;;;22.41;40.46;100534.06;4141220;28;20042;-67
2022/08/13 03:23:01;;;;;;;2.05;1.27;;;;;;;22.40;40.65;100530.56;4140567;28;20045;-67
2022/08/13 03:25:04;;;;;;;2.50;1.40;;;;;;;22.38;40.55;100528.88;4130329;28;20047;-67
2022/08/13 03:27:09;;;;;;;1.95;1.35;;;;;;;22.40;40.81;100532.34;4146419;28;20052;-67
2022/08/13 03:29:12;;;;;;;3.92;1.65;;;;;;;22.53;40.59;100531.03;4146283;28;20088;-67
2022/08/13 03:31:19;;;;;;;3.38;1.73;;;;;;;22.46;40.76;100530.34;4147820;28;20037;-67
2022/08/13 03:33:24;;;;;;;1.95;1.40;;;;;;;22.35;41.00;100521.91;4147106;28;20414;-66
2022/08/13 03:35:29;;;;;;;2.08;1.52;;;;;;;22.41;40.94;100524.34;4147791;28;20117;-66
2022/08/13 03:37:48;;;;;;;5.18;1.60;;;;;;;22.43;40.77;100529.63;4146572;28;20132;-67
2022/08/13 03:39:57;;;;;;;3.53;1.58;;;;;;;22.29;41.05;100532.69;4144629;28;20050;-66
2022/08/13 03:42:00;;;;;;;3.25;1.92;;;;;;;22.13;40.91;100535.81;4136298;28;20084;-66
2022/08/13 03:44:06;;;;;;;3.13;1.48;;;;;;;22.09;40.93;100542.16;4151476;28;20423;-66
2022/08/13 03:46:14;;;;;;;5.40;1.95;;;;;;;22.22;40.32;100532.00;4140567;28;20038;-66
2022/08/13 03:48:22;;;;;;;2.53;1.50;;;;;;;22.21;40.78;100538.25;4139430;28;20033;-66
2022/08/13 03:50:25;;;;;;;2.58;1.50;;;;;;;22.27;40.73;100542.47;4145223;28;20072;-66
2022/08/13 03:52:30;;;;;;;3.90;1.80;;;;;;;22.41;40.36;100537.59;4146691;28;20513;-66
2022/08/13 03:54:39;;;;;;;3.72;1.40;;;;;;;22.43;40.30;100538.41;4142260;28;20046;-67
2022/08/13 03:56:45;;;;;;;4.93;1.70;;;;;;;22.42;40.21;100536.66;4147435;28;20045;-67
2022/08/13 03:58:58;;;;;;;2.15;1.23;;;;;;;22.33;40.34;100534.34;4147372;28;20041;-67
2022/08/13 04:01:03;;;;;;;2.92;1.85;;;;;;;22.31;40.19;100531.72;4130686;28;20042;-68
2022/08/13 04:03:14;;;;;;;5.07;1.85;;;;;;;22.23;40.61;100532.88;4145082;28;20045;-68
2022/08/13 04:05:19;;;;;;;4.03;1.55;;;;;;;22.20;40.50;100533.84;4137051;28;20443;-67
2022/08/13 04:07:42;;;;;;;1.83;1.40;;;;;;;22.19;40.97;100540.06;4146244;28;20038;-67
2022/08/13 04:09:46;;;;;;;1.38;1.20;;;;;;;22.22;40.78;100541.75;4143541;28;20042;-67
2022/08/13 04:12:23;;;;;;;2.08;1.33;;;;;;;22.25;41.28;100537.22;4140685;28;20100;-67
2022/08/13 04:14:26;;;;;;;3.13;1.48;;;;;;;22.21;41.35;100534.69;4139550;28;20099;-67
2022/08/13 04:16:42;;;;;;;4.50;1.65;;;;;;;22.19;41.24;100528.59;4148803;28;20449;-66
2022/08/13 04:18:50;;;;;;;2.97;2.08;;;;;;;22.14;41.51;100528.75;4146886;28;20048;-66
2022/08/13 04:20:54;;;;;;;3.50;1.63;;;;;;;22.21;41.31;100532.94;4145943;28;20471;-66
2022/08/13 04:23:00;;;;;;;4.00;1.50;;;;;;;22.02;40.93;100531.78;4146540;28;20515;-66
2022/08/13 04:25:04;;;;;;;3.80;1.35;;;;;;;21.98;41.38;100528.38;4147495;28;20049;-66
2022/08/13 04:27:27;;;;;;;6.80;1.70;;;;;;;22.01;41.44;100516.84;4132391;28;20046;-67
2022/08/13 04:29:34;;;;;;;3.03;1.50;;;;;;;22.09;41.02;100512.16;4147152;28;20468;-66
2022/08/13 04:31:44;;;;;;;2.40;1.27;;;;;;;22.13;41.06;100519.06;4145860;28;20046;-66
2022/08/13 04:33:53;;;;;;;4.32;1.45;;;;;;;22.18;41.23;100521.56;4144404;28;20077;-66
2022/08/13 04:36:18;;;;;;;4.10;1.63;;;;;;;22.21;41.13;100525.00;4150072;28;20096;-67
2022/08/13 04:38:21;;;;;;;1.63;1.45;;;;;;;22.22;40.97;100526.69;4149704;28;20038;-66
2022/08/13 04:40:24;;;;;;;3.72;1.60;;;;;;;22.16;41.16;100526.06;4148541;28;20042;-67
2022/08/13 04:42:44;;;;;;;2.95;1.63;;;;;;;22.10;41.38;100527.97;4149796;28;20050;-67
2022/08/13 04:44:51;;;;;;;2.42;1.77;;;;;;;22.05;41.50;100529.94;4150293;28;20037;-66
2022/08/13 04:46:55;;;;;;;1.75;1.42;;;;;;;22.07;41.40;100538.66;4149017;28;20042;-66
2022/08/13 04:48:58;;;;;;;3.78;1.60;;;;;;;22.10;41.83;100527.13;4149022;28;20030;-66
2022/08/13 04:51:01;;;;;;;4.05;1.48;;;;;;;22.14;41.57;100528.75;4149967;28;20527;-67
2022/08/13 04:53:07;;;;;;;5.72;1.92;;;;;;;22.02;41.96;100542.38;4164740;28;20084;-67
2022/08/13 04:55:12;;;;;;;3.90;1.65;;;;;;;21.90;42.29;100539.22;4147550;28;20088;-68
2022/08/13 04:57:17;;;;;;;5.50;1.35;;;;;;;21.84;42.24;100544.69;4165328;28;20099;-67
2022/08/13 04:59:22;;;;;;;4.10;1.45;;;;;;;21.66;42.44;100548.78;4146235;28;20100;-66
2022/08/13 05:01:30;;;;;;;5.15;1.92;;;;;;;21.51;43.32;100543.94;4147027;28;20467;-67
2022/08/13 05:03:53;;;;;;;6.88;2.13;;;;;;;21.24;44.24;100534.09;4146040;28;20042;-67
2022/08/13 05:05:57;;;;;;;8.82;1.90;;;;;;;21.08;44.48;100546.91;4150246;28;20395;-67
2022/08/13 05:08:00;;;;;;;2.63;1.88;;;;;;;21.09;44.82;100547.78;4126205;28;20058;-67
2022/08/13 05:10:09;;;;;;;2.90;1.85;;;;;;;21.21;44.83;100547.41;4146186;28;20049;-67
2022/08/13 05:12:12;;;;;;;5.93;1.77;;;;;;;21.37;44.59;100552.28;4148147;28;20480;-67
2022/08/13 05:14:36;;;;;;;2.05;1.60;;;;;;;21.39;44.33;100550.44;4148978;28;20046;-67
2022/08/13 05:16:40;;;;;;;4.55;1.65;;;;;;;21.41;44.67;100549.47;4149584;28;20034;-67
2022/08/13 05:18:45;;;;;;;3.42;1.90;;;;;;;21.38;44.62;100554.00;4131508;28;20085;-67
2022/08/13 05:20:50;;;;;;;4.90;1.80;;;;;;;21.26;44.96;100561.38;4149917;28;20097;-67
2022/08/13 05:22:57;;;;;;;4.90;2.10;;;;;;;21.16;45.59;100561.66;4146409;28;20037;-68
2022/08/13 05:25:21;;;;;;;4.13;2.17;;;;;;;20.93;45.24;100557.91;4150015;28;20394;-67
2022/08/13 05:27:44;;;;;;;4.20;1.70;;;;;;;20.75;44.89;100564.56;4148950;28;20291;-68
2022/08/13 05:29:47;;;;;;;5.60;2.15;;;;;;;20.78;44.83;100559.19;4132375;28;20133;-68
2022/08/13 05:32:11;;;;;;;4.22;1.95;;;;;;;20.78;44.87;100556.53;4140882;28;20037;-69
2022/08/13 05:34:18;;;;;;;4.95;1.70;;;;;;;20.82;44.53;100550.28;4141879;28;20042;-68
2022/08/13 05:36:21;;;;;;;5.47;1.73;;;;;;;20.90;44.56;100547.41;4148251;28;20045;-67
2022/08/13 05:38:48;;;;;;;2.65;1.77;;;;;;;21.02;44.70;100551.50;4149402;28;20057;-67
2022/08/13 05:40:56;;;;;;;4.85;1.70;;;;;;;21.32;44.29;100559.44;4149665;28;20073;-68
2022/08/13 05:42:59;;;;;;;5.53;1.98;;;;;;;21.52;43.58;100557.13;4148021;28;20407;-67
2022/08/13 05:45:03;;;;;;;5.55;2.10;;;;;;;21.68;43.12;100564.63;4132178;28;20076;-67
2022/08/13 05:47:20;;;;;;;5.57;2.13;;;;;;;21.84;42.79;100559.72;4141345;28;20042;-67
2022/08/13 05:49:27;;;;;;;6.55;2.15;;;;;;;21.88;42.39;100564.88;4149439;28;20042;-68
2022/08/13 05:51:44;;;;;;;5.57;2.38;;;;;;;21.97;41.67;100563.72;4148822;28;20045;-67
2022/08/13 05:54:09;;;;;;;7.40;2.30;;;;;;;21.92;42.29;100566.50;4131854;28;20050;-67
2022/08/13 05:56:36;;;;;;;6.13;2.30;;;;;;;21.94;42.23;100564.66;4147028;28;20068;-67
2022/08/13 05:58:39;;;;;;;4.85;2.55;;;;;;;22.00;42.25;100560.97;4147900;28;20530;-67
2022/08/13 06:03:25;;;;;;;9.50;2.80;;;;;;;22.07;42.43;100554.56;4126341;28;20482;-68
2022/08/13 06:05:48;;;;;;;8.07;3.38;;;;;;;22.07;42.42;100564.28;4132013;28;20043;-67
2022/08/13 06:07:52;;;;;;;7.18;2.45;;;;;;;22.11;42.43;100558.00;4132934;28;20038;-67
2022/08/13 06:10:00;;;;;;;5.40;2.60;;;;;;;22.12;42.38;100557.06;4133046;28;20045;-67
2022/08/13 06:12:05;;;;;;;9.40;2.65;;;;;;;22.15;42.30;100556.94;4134919;28;20038;-67
2022/08/13 06:14:31;;;;;;;7.53;2.63;;;;;;;22.29;42.00;100549.41;4141475;28;20042;-67
2022/08/13 06:16:37;;;;;;;5.80;2.80;;;;;;;22.41;41.80;100550.81;4149127;28;20049;-67
2022/08/13 06:18:58;;;;;;;3.83;2.03;;;;;;;22.48;41.33;100560.31;4142229;28;20042;-67
2022/08/13 06:21:05;;;;;;;7.60;2.30;;;;;;;22.53;41.26;100552.22;4150443;28;20112;-67
2022/08/13 06:23:20;;;;;;;9.52;2.47;;;;;;;22.57;40.89;100547.66;4147050;28;20280;-67
2022/08/13 06:25:24;;;;;;;3.10;1.85;;;;;;;22.59;40.90;100546.72;4148989;28;20080;-67
2022/08/13 06:27:34;;;;;;;6.80;2.22;;;;;;;22.70;40.75;100548.97;4148578;28;20522;-67
2022/08/13 06:29:59;;;;;;;5.53;2.05;;;;;;;22.85;40.57;100552.84;4148603;28;20051;-67
2022/08/13 06:32:04;;;;;;;5.70;2.20;;;;;;;22.90;39.72;100545.63;4148366;28;20069;-67
2022/08/13 06:34:26;;;;;;;6.57;2.25;;;;;;;22.87;39.81;100543.09;4147659;28;20097;-67
2022/08/13 06:36:37;;;;;;;5.55;2.22;;;;;;;22.96;39.71;100545.41;4147913;28;20500;-68
2022/08/13 06:38:44;;;;;;;4.72;2.10;;;;;;;23.03;39.60;100551.34;4147300;28;20072;-67
2022/08/13 06:40:55;;;;;;;4.13;2.15;;;;;;;23.07;39.11;100552.09;4147572;28;20519;-67
2022/08/13 06:43:01;;;;;;;4.13;1.90;;;;;;;23.13;39.05;100554.56;4148074;28;20033;-68
2022/08/13 06:45:06;;;;;;;5.72;1.80;;;;;;;23.11;39.07;100559.06;4140947;28;20130;-68
2022/08/13 06:47:09;;;;;;;4.35;1.92;;;;;;;23.20;38.96;100560.50;4136459;28;20354;-68
2022/08/13 06:49:25;;;;;;;3.72;2.00;;;;;;;23.25;38.90;100559.44;4148482;28;20547;-67
2022/08/13 06:51:34;;;;;;;3.25;1.80;;;;;;;23.33;38.61;100553.81;4147158;28;20046;-68
2022/08/13 06:53:43;;;;;;;5.40;1.70;;;;;;;23.26;38.77;100558.50;4141160;28;20088;-68
2022/08/13 06:56:11;;;;;;;6.60;1.90;;;;;;;23.41;38.54;100556.19;4132289;28;20093;-68
2022/08/13 06:58:36;;;;;;;4.70;1.67;;;;;;;23.31;38.88;100561.84;4140647;28;20042;-67
2022/08/13 07:00:41;;;;;;;2.80;1.40;;;;;;;23.45;38.86;100563.09;4146974;28;20039;-67
2022/08/13 07:02:44;;;;;;;4.13;1.80;;;;;;;23.50;38.59;100555.84;4143227;28;20034;-68
2022/08/13 07:04:48;;;;;;;5.13;1.77;;;;;;;23.66;38.29;100564.94;4138253;28;20132;-67
2022/08/13 07:06:57;;;;;;;2.00;1.60;;;;;;;23.73;37.72;100564.69;4144438;28;20120;-67
2022/08/13 07:09:01;;;;;;;4.53;1.73;;;;;;;23.83;37.68;100568.72;4141731;28;20411;-68
2022/08/13 07:11:26;;;;;;;4.22;1.77;;;;;;;23.82;37.87;100567.00;4133953;28;20052;-68
2022/08/13 07:13:43;;;;;;;4.22;2.20;;;;;;;23.88;37.66;100569.44;4146577;28;20038;-67
2022/08/13 07:15:51;;;;;;;4.57;2.00;;;;;;;23.90;37.62;100575.56;4137703;28;20048;-67
2022/08/13 07:17:56;;;;;;;5.70;1.90;;;;;;;24.00;38.11;100571.59;4148241;28;20050;-67
2022/08/13 07:19:59;;;;;;;8.07;2.05;;;;;;;24.07;38.07;100571.38;4145158;28;20119;-67
2022/08/13 07:22:08;;;;;;;4.30;1.85;;;;;;;24.13;37.72;100571.97;4144552;28;20100;-67
2022/08/13 07:24:15;;;;;;;4.55;2.10;;;;;;;24.26;37.68;100575.00;4162580;28;20041;-68
2022/08/13 07:26:39;;;;;;;3.83;1.95;;;;;;;24.22;37.83;100570.75;4139278;28;20048;-68
2022/08/13 07:28:49;;;;;;;3.65;1.83;;;;;;;24.27;37.98;100567.91;4145168;28;20128;-67
2022/08/13 07:31:00;;;;;;;4.82;1.85;;;;;;;24.36;37.70;100567.53;4143380;28;20466;-68
2022/08/13 07:33:03;;;;;;;4.30;1.98;;;;;;;24.37;37.60;100570.13;4134747;28;20042;-69
2022/08/13 07:35:09;;;;;;;4.35;1.60;;;;;;;24.42;37.29;100566.41;4135731;28;20033;-67
2022/08/13 07:37:20;;;;;;;5.20;1.90;;;;;;;24.45;37.63;100567.13;4145134;28;20049;-67
2022/08/13 07:39:26;;;;;;;2.35;1.77;;;;;;;24.53;37.18;100564.16;4143869;28;20050;-68
2022/08/13 07:41:30;;;;;;;5.82;2.10;;;;;;;24.58;37.05;100563.03;4145602;28;20052;-68
2022/08/13 07:43:34;;;;;;;3.10;1.50;;;;;;;24.60;37.14;100557.69;4143283;28;20050;-67
2022/08/13 07:46:07;;;;;;;4.95;2.20;;;;;;;24.67;36.60;100567.13;4129340;28;20035;-68
2022/08/13 07:48:31;;;;;;;4.75;1.88;;;;;;;24.74;36.48;100568.59;4135961;28;20502;-68
2022/08/13 07:50:51;;;;;;;4.68;1.90;;;;;;;24.67;36.44;100561.81;4145830;28;20040;-67
2022/08/13 07:53:07;;;;;;;5.55;2.28;;;;;;;24.69;36.54;100565.28;4145129;28;20050;-67
2022/08/13 07:55:19;;;;;;;2.55;1.60;;;;;;;24.79;36.33;100564.88;4147011;28;20042;-68
2022/08/13 07:57:46;;;;;;;6.10;1.95;;;;;;;24.81;36.79;100563.00;4153725;28;20151;-68
2022/08/13 07:59:51;;;;;;;3.80;1.85;;;;;;;25.00;36.30;100552.41;4146030;28;20072;-68
2022/08/13 08:02:15;;;;;;;8.05;1.90;;;;;;;24.91;36.89;100561.66;4145431;28;20046;-68
2022/08/13 08:04:26;;;;;;;7.28;2.10;;;;;;;24.99;36.82;100551.56;4148881;28;20041;-70
2022/08/13 08:06:33;;;;;;;4.95;1.67;;;;;;;25.16;35.93;100555.25;4144709;28;20065;-70
2022/08/13 08:08:38;;;;;;;5.68;1.67;;;;;;;25.11;36.27;100559.94;4147469;28;20046;-69
2022/08/13 08:10:43;;;;;;;4.40;1.92;;;;;;;25.29;36.38;100555.56;4148083;28;20074;-69
2022/08/13 08:12:45;;;;;;;4.38;2.20;;;;;;;25.34;36.31;100556.25;4150661;28;20046;-69
2022/08/13 08:14:55;;;;;;;7.22;1.73;;;;;;;25.36;36.21;100559.69;4148898;28;20436;-69
2022/08/13 08:17:00;;;;;;;4.85;2.13;;;;;;;25.51;35.63;100558.13;4146155;28;20527;-69
2022/08/13 08:19:24;;;;;;;4.07;1.75;;;;;;;25.48;35.68;100558.25;4142206;28;20046;-68
2022/08/13 08:21:48;;;;;;;8.63;2.63;;;;;;;25.55;36.08;100559.72;4144792;28;20041;-69
2022/08/13 08:24:14;;;;;;;7.15;2.40;;;;;;;25.59;35.93;100561.31;4143664;28;20298;-69
2022/08/13 08:26:33;;;;;;;5.50;2.05;;;;;;;25.51;36.03;100569.66;4137459;28;20414;-68
2022/08/13 08:28:38;;;;;;;3.67;1.90;;;;;;;25.64;36.51;100564.59;4144383;28;20060;-67
2022/08/13 08:30:44;;;;;;;5.45;1.98;;;;;;;25.72;35.79;100567.78;4158638;28;20037;-68
2022/08/13 08:32:53;;;;;;;4.72;1.40;;;;;;;25.71;35.77;100563.38;4145801;28;20038;-68
2022/08/13 08:35:08;;;;;;;5.20;1.75;;;;;;;25.86;35.42;100559.13;4143884;28;20096;-69
2022/08/13 08:42:35;;;;;;;3.90;2.00;;;;;;;25.93;35.39;100549.91;4131242;28;20086;-66
2022/08/13 08:44:24;;;;;;;4.95;2.03;;;;;;;26.16;35.04;100549.75;4147575;28;20056;-69
2022/08/13 08:46:33;;;;;;;4.57;1.63;;;;;;;26.26;34.33;100541.22;4150463;28;20100;-68
2022/08/13 08:48:36;;;;;;;3.88;1.58;;;;;;;26.22;35.06;100541.44;4143473;28;20065;-69
2022/08/13 08:50:41;;;;;;;4.55;1.88;;;;;;;26.23;34.25;100536.03;4148055;28;20038;-70
2022/08/13 08:55:35;;;;;;;4.35;1.40;;;;;;;26.29;34.46;100541.06;4147720;28;20381;-63
2022/08/13 08:57:46;;;;;;;2.67;1.48;;;;;;;26.35;34.65;100539.88;4149954;28;20041;-63
2022/08/13 08:59:54;;;;;;;4.95;1.60;;;;;;;26.48;34.82;100532.97;4146615;28;20034;-63
2022/08/13 09:01:57;;;;;;;3.72;1.67;;;;;;;26.54;34.73;100529.13;4143041;28;20073;-63
2022/08/13 09:04:06;;;;;;;5.13;1.70;;;;;;;26.66;34.78;100532.97;4145747;28;20045;-63
2022/08/13 09:06:12;;;;;;;5.90;1.67;;;;;;;26.92;33.30;100528.13;4146247;28;20041;-63
2022/08/13 09:08:24;;;;;;;;;;;;;;;26.89;33.39;100528.28;4149231;28;20121;-63
2022/08/13 09:10:33;;;;;;;3.63;2.00;;;;;;;26.95;32.37;100528.81;4145200;28;19927;-63
2022/08/13 09:12:40;;;;;;;6.88;1.92;;;;;;;27.12;32.04;100522.56;4146330;28;20116;-63
2022/08/13 09:14:44;;;;;;;2.45;1.40;;;;;;;27.05;32.01;100521.19;4146887;28;20161;-63
2022/08/13 09:16:50;;;;;;;4.18;1.77;;;;;;;27.08;32.24;100523.69;4149988;28;20049;-63
2022/08/13 09:18:55;;;;;;;3.25;1.75;;;;;;;27.04;32.96;100524.78;4147280;28;20515;-63
2022/08/13 09:20:59;;;;;;;5.05;2.25;;;;;;;27.15;32.49;100514.41;4146211;28;20042;-63
2022/08/13 09:23:24;;;;;;;2.55;1.50;;;;;;;27.24;31.84;100517.53;4143901;28;20034;-63
2022/08/13 09:25:50;;;;;;;2.90;1.35;;;;;;;27.38;31.14;100515.00;4147176;28;20096;-63
2022/08/13 09:27:59;;;;;;;3.17;1.80;;;;;;;27.44;31.25;100516.47;4136041;28;20078;-62
2022/08/13 09:30:16;;;;;;;1.95;1.65;;;;;;;27.52;30.78;100509.75;4141184;28;20038;-63
2022/08/13 09:32:27;;;;;;;3.63;1.20;;;;;;;27.45;30.95;100519.03;4143633;28;20034;-62
2022/08/13 09:34:36;;;;;;;1.25;1.00;;;;;;;27.53;30.65;100518.59;4146955;28;20034;-62
2022/08/13 09:36:43;;;;;;;1.50;1.40;;;;;;;27.59;30.96;100510.25;4148537;28;20042;-65
2022/08/13 09:38:49;;;;;;;6.30;1.55;;;;;;;27.70;30.54;100506.97;4164599;28;20030;-65
2022/08/13 09:40:55;;;;;;;5.05;1.73;;;;;;;27.82;30.60;100498.25;4146068;28;20042;-66
2022/08/13 09:43:19;;;;;;;4.45;1.70;;;;;;;27.89;30.74;100505.91;4140691;28;20070;-66
2022/08/13 09:45:42;;;;;;;6.93;1.83;;;;;;;27.91;29.86;100501.34;4143439;28;20463;-68
2022/08/13 09:47:48;;;;;;;4.25;1.70;;;;;;;27.81;31.10;100495.69;4142178;28;20230;-68
2022/08/13 09:50:11;;;;;;;2.25;1.50;;;;;;;27.99;30.45;100494.66;4143727;28;20042;-67
2022/08/13 09:52:14;;;;;;;3.63;1.60;;;;;;;27.98;30.20;100497.41;4171052;28;20083;-67
2022/08/13 09:54:23;;;;;;;6.25;1.60;;;;;;;27.94;30.59;100490.47;4145116;28;20096;-67
2022/08/13 09:56:36;;;;;;;2.28;1.58;;;;;;;28.11;29.91;100486.84;4146963;28;20049;-67
2022/08/13 09:58:39;;;;;;;4.25;1.20;;;;;;;28.10;30.41;100482.47;4152827;28;20038;-68
2022/08/13 10:00:46;;;;;;;4.22;1.40;;;;;;;28.18;30.39;100481.06;4151056;28;20038;-68
2022/08/13 10:02:50;;;;;;;;;;;;;;;28.39;29.96;100478.91;4147096;28;20040;-69
2022/08/13 10:04:55;;;;;;;1.65;1.55;;;;;;;28.36;29.88;100486.25;4133351;28;19921;-67
2022/08/13 10:06:58;;;;;;;1.73;1.13;;;;;;;28.45;29.65;100483.03;4149789;28;20046;-67
2022/08/13 10:09:05;;;;;;;2.15;1.40;;;;;;;28.58;30.19;100479.59;4147094;28;20033;-67
2022/08/13 10:11:10;;;;;;;2.50;1.30;;;;;;;28.68;29.74;100478.09;4148590;28;20048;-66
2022/08/13 10:13:24;;;;;;;3.15;1.40;;;;;;;28.84;29.22;100470.00;4146664;28;20068;-68
2022/08/13 10:15:46;;;;;;;4.95;1.42;;;;;;;28.77;29.40;100464.19;4147939;28;20049;-67
2022/08/13 10:17:53;;;;;;;2.03;1.40;;;;;;;28.62;29.88;100463.31;4144711;28;20046;-69
2022/08/13 10:19:58;;;;;;;1.33;1.00;;;;;;;28.76;29.71;100467.81;4147546;28;20054;-69
2022/08/13 10:22:04;;;;;;;5.80;1.40;;;;;;;28.84;29.51;100467.31;4160710;28;20037;-69
2022/08/13 10:24:09;;;;;;;5.90;1.88;;;;;;;29.00;28.79;100460.06;4146304;28;20041;-71